createdAt,value
2022-09-17T00:01:37.695Z,13.32
2022-09-17T00:04:06.515Z,13.05
2022-09-17T00:06:35.979Z,13.27
2022-09-17T00:09:06.818Z,13.51
2022-09-17T00:11:38.622Z,13.50
2022-09-17T00:14:10.196Z,13.63
2022-09-17T00:16:45.233Z,13.55
2022-09-17T00:19:23.055Z,13.74
2022-09-17T00:21:51.553Z,13.77
2022-09-17T00:24:20.814Z,13.78
2022-09-17T00:26:50.188Z,13.70
2022-09-17T00:29:18.123Z,13.74
2022-09-17T00:31:45.960Z,13.54
2022-09-17T00:34:13.898Z,13.43
2022-09-17T00:36:42.135Z,13.20
2022-09-17T00:39:12.495Z,13.16
2022-09-17T00:41:40.294Z,13.14
2022-09-17T00:44:43.389Z,13.18
2022-09-17T00:47:16.201Z,13.28
2022-09-17T00:49:44.739Z,13.16
2022-09-17T00:52:21.924Z,13.30
2022-09-17T00:55:15.863Z,13.36
2022-09-17T00:57:46.023Z,13.08
2022-09-17T01:00:16.180Z,13.07
2022-09-17T01:02:45.008Z,13.07
2022-09-17T01:05:14.038Z,13.20
2022-09-17T01:07:57.725Z,13.19
2022-09-17T01:10:43.986Z,13.13
2022-09-17T01:14:05.707Z,13.22
2022-09-17T01:16:53.785Z,13.25
2022-09-17T01:19:38.150Z,12.88
2022-09-17T01:23:03.056Z,12.95
2022-09-17T01:26:05.920Z,13.16
2022-09-17T01:28:53.729Z,13.12
2022-09-17T01:31:49.149Z,13.15
2022-09-17T01:34:59.509Z,13.08
2022-09-17T01:37:57.767Z,13.13
2022-09-17T01:40:41.804Z,12.99
2022-09-17T01:43:49.996Z,12.71
2022-09-17T01:46:33.971Z,13.04
2022-09-17T01:49:06.850Z,12.80
2022-09-17T01:51:43.302Z,13.15
2022-09-17T01:54:43.031Z,13.07
2022-09-17T01:57:36.447Z,12.93
2022-09-17T02:00:12.477Z,13.23
2022-09-17T02:03:05.698Z,13.17
2022-09-17T02:05:50.643Z,13.29
2022-09-17T02:08:26.324Z,13.05
2022-09-17T02:11:06.661Z,13.16
2022-09-17T02:13:46.313Z,13.18
2022-09-17T02:16:24.824Z,13.07
2022-09-17T02:19:10.869Z,13.17
2022-09-17T02:22:27.551Z,13.22
2022-09-17T02:25:08.499Z,13.36
2022-09-17T02:28:06.147Z,13.20
2022-09-17T02:30:34.442Z,13.10
2022-09-17T02:33:05.121Z,13.28
2022-09-17T02:35:33.412Z,12.94
2022-09-17T02:38:01.384Z,13.08
2022-09-17T02:40:37.831Z,12.93
2022-09-17T02:43:50.895Z,13.02
2022-09-17T02:46:55.297Z,12.80
2022-09-17T02:49:58.979Z,12.68
2022-09-17T02:52:49.365Z,12.77
2022-09-17T02:55:23.123Z,12.87
2022-09-17T02:58:04.438Z,12.87
2022-09-17T03:00:32.745Z,12.93
2022-09-17T03:03:26.656Z,12.85
2022-09-17T03:05:55.157Z,13.03
2022-09-17T03:08:30.562Z,13.02
2022-09-17T03:10:58.349Z,12.96
2022-09-17T03:13:26.231Z,13.02
2022-09-17T03:15:54.057Z,13.09
2022-09-17T03:18:21.801Z,12.92
2022-09-17T03:20:50.032Z,12.74
2022-09-17T03:23:17.744Z,12.60
2022-09-17T03:25:47.325Z,12.49
2022-09-17T03:28:15.438Z,12.70
2022-09-17T03:30:45.568Z,12.68
2022-09-17T03:33:14.432Z,12.45
2022-09-17T03:35:46.496Z,12.67
2022-09-17T03:38:14.640Z,12.47
2022-09-17T03:40:42.725Z,12.28
2022-09-17T03:43:11.166Z,12.32
2022-09-17T03:45:38.909Z,12.45
2022-09-17T03:48:06.617Z,12.43
2022-09-17T03:50:34.463Z,12.49
2022-09-17T03:53:02.216Z,12.57
2022-09-17T03:55:29.998Z,12.44
2022-09-17T03:57:57.715Z,12.51
2022-09-17T04:00:25.741Z,12.19
2022-09-17T04:02:53.548Z,12.21
2022-09-17T04:05:21.368Z,11.98
2022-09-17T04:07:49.224Z,11.91
2022-09-17T04:10:17.452Z,11.96
2022-09-17T04:12:45.361Z,11.94
2022-09-17T04:15:13.112Z,12.02
2022-09-17T04:17:41.074Z,12.28
2022-09-17T04:20:09.430Z,12.13
2022-09-17T04:22:37.146Z,12.26
2022-09-17T04:25:05.488Z,12.18
2022-09-17T04:27:33.225Z,12.32
2022-09-17T04:30:01.804Z,12.49
2022-09-17T04:32:29.549Z,12.20
2022-09-17T04:34:57.338Z,12.28
2022-09-17T04:37:25.909Z,12.28
2022-09-17T04:39:53.858Z,12.16
2022-09-17T04:42:21.600Z,12.28
2022-09-17T04:44:49.337Z,12.24
2022-09-17T04:47:17.066Z,12.25
2022-09-17T04:49:44.997Z,12.06
2022-09-17T04:52:12.708Z,11.95
2022-09-17T04:54:40.501Z,11.93
2022-09-17T04:57:08.420Z,12.21
2022-09-17T04:59:36.227Z,11.89
2022-09-17T05:02:04.020Z,12.12
2022-09-17T05:04:31.852Z,11.91
2022-09-17T05:07:00.319Z,11.74
2022-09-17T05:09:28.117Z,11.90
2022-09-17T05:11:55.910Z,11.99
2022-09-17T05:14:23.689Z,12.08
2022-09-17T05:16:51.448Z,12.11
2022-09-17T05:19:19.156Z,12.36
2022-09-17T05:21:47.198Z,12.41
2022-09-17T05:24:14.921Z,12.13
2022-09-17T05:26:42.697Z,12.14
2022-09-17T05:29:10.489Z,12.10
2022-09-17T05:31:38.356Z,12.11
2022-09-17T05:34:06.214Z,11.98
2022-09-17T05:36:33.977Z,11.81
2022-09-17T05:39:02.281Z,11.83
2022-09-17T05:41:30.186Z,12.03
2022-09-17T05:43:57.935Z,12.19
2022-09-17T05:46:26.390Z,12.31
2022-09-17T05:48:57.462Z,12.28
2022-09-17T05:51:25.464Z,12.20
2022-09-17T05:53:56.221Z,12.14
2022-09-17T05:56:24.175Z,12.21
2022-09-17T05:58:57.031Z,12.09
2022-09-17T06:01:25.087Z,12.07
2022-09-17T06:03:53.825Z,11.93
2022-09-17T06:06:21.585Z,11.96
2022-09-17T06:08:49.391Z,12.12
2022-09-17T06:11:17.086Z,12.19
2022-09-17T06:13:44.820Z,12.29
2022-09-17T06:16:12.613Z,12.04
2022-09-17T06:18:40.357Z,12.30
2022-09-17T06:21:08.047Z,12.11
2022-09-17T06:23:35.874Z,11.92
2022-09-17T06:26:05.843Z,12.15
2022-09-17T06:28:35.857Z,12.10
2022-09-17T06:31:09.411Z,12.07
2022-09-17T06:33:37.623Z,12.34
2022-09-17T06:36:13.743Z,12.53
2022-09-17T06:38:42.864Z,12.63
2022-09-17T06:41:10.632Z,12.63
2022-09-17T06:43:39.335Z,12.62
2022-09-17T06:46:09.205Z,12.55
2022-09-17T06:48:38.374Z,12.45
2022-09-17T06:51:11.127Z,12.10
2022-09-17T06:53:39.727Z,12.02
2022-09-17T06:56:09.189Z,12.24
2022-09-17T06:58:37.951Z,11.97
2022-09-17T07:01:06.155Z,12.20
2022-09-17T07:03:35.692Z,12.16
2022-09-17T07:06:04.015Z,11.99
2022-09-17T07:08:34.702Z,11.90
2022-09-17T07:11:02.907Z,12.11
2022-09-17T07:13:30.707Z,12.29
2022-09-17T07:16:01.286Z,12.19
2022-09-17T07:18:29.133Z,12.14
2022-09-17T07:21:02.818Z,12.10
2022-09-17T07:23:34.734Z,11.96
2022-09-17T07:26:06.883Z,11.90
2022-09-17T07:28:35.190Z,12.19
2022-09-17T07:31:05.546Z,12.08
2022-09-17T07:33:35.903Z,12.13
2022-09-17T07:36:07.631Z,12.42
2022-09-17T07:38:35.605Z,12.55
2022-09-17T07:41:15.652Z,12.32
2022-09-17T07:43:44.481Z,12.17
2022-09-17T07:46:18.094Z,11.98
2022-09-17T07:48:48.037Z,11.98
2022-09-17T07:51:22.300Z,12.01
2022-09-17T07:53:57.969Z,12.16
2022-09-17T07:56:27.435Z,12.28
2022-09-17T07:58:56.262Z,12.27
2022-09-17T08:01:24.424Z,12.44
2022-09-17T08:03:54.363Z,12.61
2022-09-17T08:06:28.351Z,12.64
2022-09-17T08:09:00.180Z,12.46
2022-09-17T08:11:52.212Z,12.39
2022-09-17T08:14:17.958Z,12.71
2022-09-17T08:16:47.433Z,12.78
2022-09-17T08:19:15.269Z,12.96
2022-09-17T08:21:42.987Z,12.80
2022-09-17T08:24:10.749Z,13.12
2022-09-17T08:26:39.798Z,12.73
2022-09-17T08:29:07.739Z,12.75
2022-09-17T08:31:35.545Z,13.01
2022-09-17T08:34:09.670Z,13.20
2022-09-17T08:36:37.895Z,13.32
2022-09-17T08:39:05.901Z,13.20
2022-09-17T08:41:52.457Z,13.16
2022-09-17T08:44:34.689Z,13.17
2022-09-17T08:47:26.536Z,13.46
2022-09-17T08:50:00.594Z,13.70
2022-09-17T08:52:52.296Z,13.74
2022-09-17T08:55:35.169Z,13.98
2022-09-17T08:58:35.293Z,13.87
2022-09-17T09:01:21.011Z,13.93
2022-09-17T09:04:26.378Z,14.08
2022-09-17T09:07:24.129Z,13.84
2022-09-17T09:10:17.848Z,13.76
2022-09-17T09:12:47.357Z,14.09
2022-09-17T09:15:27.307Z,14.31
2022-09-17T09:17:57.925Z,14.30
2022-09-17T09:21:04.117Z,13.95
2022-09-17T09:23:56.845Z,14.09
2022-09-17T09:27:02.400Z,13.43
2022-09-17T09:29:58.556Z,13.30
2022-09-17T09:33:07.048Z,13.11
2022-09-17T09:35:39.565Z,13.56
2022-09-17T09:38:25.342Z,13.32
2022-09-17T09:41:37.579Z,13.78
2022-09-17T09:44:11.446Z,13.85
2022-09-17T09:46:42.217Z,13.61
2022-09-17T09:49:25.031Z,13.82
2022-09-17T09:52:07.749Z,14.19
2022-09-17T09:54:54.013Z,14.45
2022-09-17T09:57:52.321Z,14.01
2022-09-17T10:00:39.327Z,14.41
2022-09-17T10:03:26.782Z,14.26
2022-09-17T10:06:04.929Z,14.50
2022-09-17T10:08:39.087Z,14.85
2022-09-17T10:11:22.041Z,14.56
2022-09-17T10:13:50.176Z,14.91
2022-09-17T10:16:24.497Z,15.01
2022-09-17T10:19:04.354Z,14.80
2022-09-17T10:21:39.522Z,14.81
2022-09-17T10:24:31.139Z,15.00
2022-09-17T10:27:18.127Z,14.92
2022-09-17T10:29:49.309Z,14.81
2022-09-17T10:32:20.739Z,14.79
2022-09-17T10:35:16.958Z,14.82
2022-09-17T10:37:51.282Z,15.47
2022-09-17T10:40:19.025Z,15.07
2022-09-17T10:43:21.609Z,14.65
2022-09-17T10:45:59.686Z,14.95
2022-09-17T10:48:45.039Z,14.40
2022-09-17T10:51:23.355Z,14.73
2022-09-17T10:54:44.849Z,14.91
2022-09-17T10:57:29.206Z,14.86
2022-09-17T11:00:21.582Z,15.01
2022-09-17T11:03:10.848Z,15.04
2022-09-17T11:06:16.970Z,15.22
2022-09-17T11:09:05.926Z,14.94
2022-09-17T11:12:07.826Z,14.98
2022-09-17T11:14:56.870Z,14.91
2022-09-17T11:18:03.870Z,14.86
2022-09-17T11:21:03.498Z,15.23
2022-09-17T11:24:02.401Z,15.56
2022-09-17T11:27:00.760Z,15.67
2022-09-17T11:30:04.540Z,15.28
2022-09-17T11:33:14.234Z,15.56
2022-09-17T11:35:47.612Z,15.54
2022-09-17T11:38:27.043Z,15.63
2022-09-17T11:41:46.805Z,15.90
2022-09-17T11:44:21.093Z,15.72
2022-09-17T11:47:02.868Z,15.06
2022-09-17T11:49:46.626Z,14.89
2022-09-17T11:52:41.545Z,15.16
2022-09-17T11:55:22.799Z,15.21
2022-09-17T11:57:57.941Z,15.19
2022-09-17T12:00:28.640Z,15.07
2022-09-17T12:03:36.035Z,14.65
2022-09-17T12:06:16.365Z,14.26
2022-09-17T12:09:19.168Z,14.91
2022-09-17T12:11:59.362Z,15.16
2022-09-17T12:15:03.689Z,15.24
2022-09-17T12:17:42.489Z,15.52
2022-09-17T12:20:37.470Z,15.35
2022-09-17T12:23:15.083Z,15.44
2022-09-17T12:26:12.458Z,15.20
2022-09-17T12:29:05.915Z,14.97
2022-09-17T12:31:52.508Z,14.59
2022-09-17T12:34:29.248Z,14.41
2022-09-17T12:37:17.330Z,14.16
2022-09-17T12:39:54.015Z,13.83
2022-09-17T12:42:33.013Z,13.86
2022-09-17T12:45:42.419Z,13.95
2022-09-17T12:48:29.185Z,14.06
2022-09-17T12:51:53.138Z,13.97
2022-09-17T12:55:24.803Z,13.68
2022-09-17T12:58:07.580Z,13.86
2022-09-17T13:00:48.141Z,13.96
2022-09-17T13:03:29.375Z,13.79
2022-09-17T13:07:04.247Z,14.00
2022-09-17T13:10:15.326Z,14.57
2022-09-17T13:12:49.774Z,14.32
2022-09-17T13:15:36.154Z,14.26
2022-09-17T13:21:55.781Z,14.75
2022-09-17T13:24:27.271Z,14.90
2022-09-17T13:26:56.155Z,15.20
2022-09-17T13:29:46.094Z,15.13
2022-09-17T13:32:32.685Z,15.09
2022-09-17T13:35:15.246Z,14.95
2022-09-17T13:38:04.506Z,14.67
2022-09-17T13:40:36.969Z,15.14
2022-09-17T13:43:06.247Z,14.87
2022-09-17T13:45:59.494Z,14.67
2022-09-17T13:48:34.763Z,14.55
2022-09-17T13:51:30.381Z,14.85
2022-09-17T13:54:07.998Z,14.64
2022-09-17T13:56:46.239Z,14.90
2022-09-17T13:59:18.184Z,15.28
2022-09-17T14:02:18.650Z,15.42
2022-09-17T14:04:52.506Z,15.53
2022-09-17T14:07:28.978Z,16.03
2022-09-17T14:10:02.887Z,15.67
2022-09-17T14:12:44.534Z,15.79
2022-09-17T14:15:31.977Z,15.45
2022-09-17T14:18:00.085Z,15.42
2022-09-17T14:20:28.728Z,15.52
2022-09-17T14:23:03.540Z,15.61
2022-09-17T14:25:58.492Z,16.35
2022-09-17T14:28:30.771Z,16.44
2022-09-17T14:31:02.892Z,16.49
2022-09-17T14:33:32.462Z,17.00
2022-09-17T14:36:10.690Z,16.87
2022-09-17T14:38:45.063Z,16.64
2022-09-17T14:41:12.856Z,16.70
2022-09-17T14:43:49.542Z,16.68
2022-09-17T14:46:37.514Z,16.75
2022-09-17T14:49:24.524Z,16.79
2022-09-17T14:51:55.719Z,16.89
2022-09-17T14:54:36.499Z,17.04
2022-09-17T14:57:29.637Z,17.36
2022-09-17T14:59:58.212Z,17.66
2022-09-17T15:02:45.362Z,17.32
2022-09-17T15:05:27.317Z,16.99
2022-09-17T15:08:10.414Z,17.14
2022-09-17T15:11:03.157Z,16.66
2022-09-17T15:13:57.296Z,16.16
2022-09-17T15:16:27.971Z,16.16
2022-09-17T15:18:58.720Z,15.77
2022-09-17T15:21:49.332Z,16.05
2022-09-17T15:24:38.927Z,16.15
2022-09-17T15:27:34.227Z,16.20
2022-09-17T15:30:20.405Z,15.68
2022-09-17T15:32:57.608Z,15.77
2022-09-17T15:35:30.565Z,16.02
2022-09-17T15:38:22.362Z,16.40
2022-09-17T15:40:51.823Z,16.74
2022-09-17T15:43:25.494Z,16.72
2022-09-17T15:45:54.002Z,16.53
2022-09-17T15:48:27.458Z,16.19
2022-09-17T15:50:57.965Z,16.49
2022-09-17T15:53:28.427Z,16.25
2022-09-17T15:56:17.810Z,15.80
2022-09-17T15:58:45.581Z,15.89
2022-09-17T16:01:15.994Z,15.85
2022-09-17T16:03:43.675Z,15.99
2022-09-17T16:06:20.929Z,15.75
2022-09-17T16:08:55.486Z,15.79
2022-09-17T16:11:26.679Z,15.93
2022-09-17T16:14:00.897Z,16.10
2022-09-17T16:16:37.566Z,16.03
2022-09-17T16:19:06.860Z,16.02
2022-09-17T16:21:34.596Z,16.13
2022-09-17T16:24:02.462Z,16.07
2022-09-17T16:26:33.711Z,15.65
2022-09-17T16:29:17.243Z,15.46
2022-09-17T16:31:45.241Z,15.69
2022-09-17T16:34:13.089Z,15.65
2022-09-17T16:36:41.077Z,15.75
2022-09-17T16:39:08.818Z,15.51
2022-09-17T16:41:36.541Z,15.47
2022-09-17T16:44:04.547Z,15.58
2022-09-17T16:46:32.358Z,15.80
2022-09-17T16:49:00.805Z,15.74
2022-09-17T16:51:28.656Z,15.83
2022-09-17T16:53:57.811Z,15.95
2022-09-17T16:56:26.164Z,15.25
2022-09-17T16:58:57.046Z,14.72
2022-09-17T17:01:24.981Z,14.03
2022-09-17T17:03:54.213Z,13.63
2022-09-17T17:06:22.751Z,13.89
2022-09-17T17:08:51.794Z,13.85
2022-09-17T17:11:19.509Z,13.75
2022-09-17T17:13:47.579Z,13.43
2022-09-17T17:16:16.246Z,13.51
2022-09-17T17:18:44.997Z,13.54
2022-09-17T17:21:14.475Z,13.37
2022-09-17T17:23:47.218Z,13.46
2022-09-17T17:26:16.777Z,13.65
2022-09-17T17:28:44.673Z,13.75
2022-09-17T17:31:12.443Z,13.65
2022-09-17T17:33:40.376Z,13.72
2022-09-17T17:36:08.731Z,13.77
2022-09-17T17:38:37.267Z,13.22
2022-09-17T17:41:14.118Z,13.46
2022-09-17T17:43:42.366Z,13.30
2022-09-17T17:46:11.845Z,13.51
2022-09-17T17:48:39.860Z,13.42
2022-09-17T17:51:09.700Z,13.58
2022-09-17T17:53:41.735Z,13.71
2022-09-17T17:56:11.172Z,13.95
2022-09-17T17:58:40.028Z,14.05
2022-09-17T18:01:20.910Z,13.99
2022-09-17T18:03:49.027Z,13.92
2022-09-17T18:06:16.936Z,14.05
2022-09-17T18:08:44.823Z,14.14
2022-09-17T18:11:12.745Z,14.18
2022-09-17T18:13:40.679Z,14.12
2022-09-17T18:16:12.374Z,14.03
2022-09-17T18:18:44.948Z,14.06
2022-09-17T18:21:22.190Z,14.17
2022-09-17T18:23:51.059Z,14.05
2022-09-17T18:26:25.563Z,14.00
2022-09-17T18:28:53.773Z,14.14
2022-09-17T18:31:22.903Z,13.98
2022-09-17T18:34:13.475Z,14.06
2022-09-17T18:36:44.700Z,13.91
2022-09-17T18:39:53.291Z,13.57
2022-09-17T18:42:04.501Z,13.76
2022-09-17T18:44:32.333Z,13.85
2022-09-17T18:47:00.295Z,13.51
2022-09-17T18:49:28.098Z,13.22
2022-09-17T18:51:55.881Z,13.16
2022-09-17T18:54:23.645Z,13.02
2022-09-17T18:56:51.376Z,13.11
2022-09-17T18:59:19.163Z,12.98
2022-09-17T19:01:46.955Z,13.22
2022-09-17T19:04:14.766Z,13.00
2022-09-17T19:06:42.492Z,12.58
2022-09-17T19:09:11.631Z,12.56
2022-09-17T19:11:39.365Z,12.46
2022-09-17T19:14:10.591Z,12.39
2022-09-17T19:16:38.348Z,12.55
2022-09-17T19:19:06.051Z,12.76
2022-09-17T19:21:33.773Z,12.68
2022-09-17T19:24:03.324Z,12.60
2022-09-17T19:26:31.192Z,12.47
2022-09-17T19:29:00.523Z,12.18
2022-09-17T19:31:28.955Z,12.16
2022-09-17T19:33:58.822Z,12.44
2022-09-17T19:36:26.842Z,12.46
2022-09-17T19:38:55.127Z,12.41
2022-09-17T19:41:23.405Z,12.28
2022-09-17T19:43:53.507Z,12.11
2022-09-17T19:46:26.843Z,12.08
2022-09-17T19:48:57.202Z,12.38
2022-09-17T19:51:29.699Z,12.39
2022-09-17T19:53:57.977Z,12.46
2022-09-17T19:56:28.257Z,12.60
2022-09-17T19:58:56.834Z,12.49
2022-09-17T20:01:24.779Z,12.73
2022-09-17T20:03:55.529Z,12.61
2022-09-17T20:06:24.074Z,12.61
2022-09-17T20:08:54.705Z,12.35
2022-09-17T20:11:25.293Z,12.53
2022-09-17T20:14:07.433Z,12.55
2022-09-17T20:16:38.464Z,12.51
2022-09-17T20:19:08.051Z,12.45
2022-09-17T20:21:35.879Z,12.09
2022-09-17T20:24:06.942Z,12.34
2022-09-17T20:26:35.394Z,12.39
2022-09-17T20:29:03.922Z,12.34
2022-09-17T20:31:32.498Z,12.35
2022-09-17T20:34:02.899Z,12.27
2022-09-17T20:36:35.351Z,12.25
2022-09-17T20:39:22.867Z,12.37
2022-09-17T20:41:51.085Z,12.23
2022-09-17T20:44:18.971Z,12.38
2022-09-17T20:46:47.137Z,12.16
2022-09-17T20:49:15.134Z,12.15
2022-09-17T20:51:42.975Z,12.00
2022-09-17T20:54:11.084Z,11.86
2022-09-17T20:56:38.920Z,11.79
2022-09-17T20:59:25.000Z,12.10
2022-09-17T21:01:53.649Z,11.90
2022-09-17T21:04:22.382Z,12.32
2022-09-17T21:06:54.018Z,12.47
2022-09-17T21:09:21.776Z,12.49
2022-09-17T21:11:49.910Z,12.53
2022-09-17T21:14:18.511Z,12.66
2022-09-17T21:16:47.007Z,12.50
2022-09-17T21:19:17.254Z,12.45
2022-09-17T21:21:45.041Z,12.05
2022-09-17T21:24:12.893Z,12.29
2022-09-17T21:26:40.691Z,12.65
2022-09-17T21:29:08.704Z,12.72
2022-09-17T21:31:37.974Z,12.77
2022-09-17T21:34:10.011Z,12.58
2022-09-17T21:36:40.156Z,12.78
2022-09-17T21:39:14.456Z,12.33
2022-09-17T21:41:43.969Z,12.20
2022-09-17T21:44:12.728Z,12.18
2022-09-17T21:46:42.663Z,12.14
2022-09-17T21:49:11.264Z,12.02
2022-09-17T21:51:41.962Z,12.30
2022-09-17T21:54:13.957Z,12.25
2022-09-17T21:56:42.023Z,12.30
2022-09-17T21:59:13.217Z,12.30
2022-09-17T22:01:46.656Z,12.23
2022-09-17T22:04:20.445Z,12.14
2022-09-17T22:06:49.922Z,12.38
2022-09-17T22:09:26.234Z,12.20
2022-09-17T22:11:54.065Z,12.38
2022-09-17T22:14:25.334Z,12.45
2022-09-17T22:16:57.234Z,12.28
2022-09-17T22:19:25.928Z,12.35
2022-09-17T22:21:55.582Z,12.27
2022-09-17T22:24:25.153Z,12.41
2022-09-17T22:26:57.894Z,12.47
2022-09-17T22:29:28.629Z,12.58
2022-09-17T22:31:57.289Z,12.77
2022-09-17T22:34:26.475Z,12.75
2022-09-17T22:36:54.272Z,12.79
2022-09-17T22:39:22.569Z,12.85
2022-09-17T22:41:51.106Z,13.00
2022-09-17T22:44:20.580Z,12.93
2022-09-17T22:46:51.411Z,12.99
2022-09-17T22:49:19.586Z,12.90
2022-09-17T22:51:47.676Z,12.94
2022-09-17T22:54:18.793Z,13.02
2022-09-17T22:56:48.254Z,12.76
2022-09-17T22:59:18.229Z,12.96
2022-09-17T23:01:46.421Z,12.58
2022-09-17T23:04:14.293Z,12.57
2022-09-17T23:06:42.262Z,12.44
2022-09-17T23:09:12.203Z,12.55
2022-09-17T23:11:40.367Z,12.44
2022-09-17T23:14:12.147Z,12.69
2022-09-17T23:16:47.446Z,12.72
2022-09-17T23:19:18.341Z,12.53
2022-09-17T23:21:46.581Z,12.54
2022-09-17T23:24:21.000Z,12.66
2022-09-17T23:26:50.004Z,12.24
2022-09-17T23:29:18.556Z,11.91
2022-09-17T23:31:46.305Z,12.18
2022-09-17T23:34:14.080Z,12.15
2022-09-17T23:36:41.825Z,12.28
2022-09-17T23:39:11.958Z,12.21
2022-09-17T23:41:43.439Z,11.98
2022-09-17T23:44:15.712Z,11.93
2022-09-17T23:46:45.174Z,11.91
2022-09-17T23:49:14.384Z,12.08
2022-09-17T23:51:42.596Z,11.60
2022-09-17T23:54:10.854Z,12.01
2022-09-17T23:56:38.630Z,11.90
2022-09-17T23:59:08.518Z,12.09
